<?xml version="1.0" encoding="UTF-8" standalone="no" ?><gpx xmlns="http://www.topografix.com/GPX/1/1" xmlns:gpxx="http://www.garmin.com/xmlschemas/GpxExtensions/v3" xmlns:wptx1="http://www.garmin.com/xmlschemas/WaypointExtension/v1" xmlns:gpxtpx="http://www.garmin.com/xmlschemas/TrackPointExtension/v1" creator="GuideVTT.com" version="1.1" xmlns:xsi="http://www.w3.org/2001/XMLSchema-instance" xsi:schemaLocation="http://www.topografix.com/GPX/1/1 http://www.topografix.com/GPX/1/1/gpx.xsd http://www.garmin.com/xmlschemas/GpxExtensions/v3 http://www8.garmin.com/xmlschemas/GpxExtensionsv3.xsd http://www.garmin.com/xmlschemas/WaypointExtension/v1 http://www8.garmin.com/xmlschemas/WaypointExtensionv1.xsd http://www.garmin.com/xmlschemas/TrackPointExtension/v1 http://www.garmin.com/xmlschemas/TrackPointExtensionv1.xsd">
<metadata><link href="http://www.garmin.com"><text>Garmin International</text></link><time>2013-06-22T15:13:50Z</time></metadata>
<trk><name>trk_last_path.gpx</name><extensions><gpxx:TrackExtension><gpxx:DisplayColor>Cyan</gpxx:DisplayColor></gpxx:TrackExtension></extensions><trkseg>
<trkpt lat="5332086.00" lon="-1.0"><ele></ele><time>2014-4-10T14:25:47Z</time></trkpt>
<trkpt lat="5332084.00" lon="-1.0"><ele></ele><time>2014-4-10T14:25:50Z</time></trkpt>
<trkpt lat="5332081.50" lon="-1.0"><ele></ele><time>2014-4-10T14:25:53Z</time></trkpt>
<trkpt lat="5332079.50" lon="-1.0"><ele></ele><time>2014-4-10T14:25:56Z</time></trkpt>
<trkpt lat="5332076.00" lon="-1.0"><ele></ele><time>2014-4-10T14:25:59Z</time></trkpt>
<trkpt lat="5332073.00" lon="-1.0"><ele></ele><time>2014-4-10T14:26:2Z</time></trkpt>
<trkpt lat="5332070.50" lon="-1.0"><ele></ele><time>2014-4-10T14:26:5Z</time></trkpt>
<trkpt lat="5332067.00" lon="-1.0"><ele></ele><time>2014-4-10T14:26:8Z</time></trkpt>
<trkpt lat="5332065.00" lon="-1.0"><ele></ele><time>2014-4-10T14:26:11Z</time></trkpt>
<trkpt lat="5332061.50" lon="-1.0"><ele></ele><time>2014-4-10T14:26:14Z</time></trkpt>
<trkpt lat="5332058.50" lon="-1.0"><ele></ele><time>2014-4-10T14:26:17Z</time></trkpt>
<trkpt lat="5332055.00" lon="-1.0"><ele></ele><time>2014-4-10T14:26:20Z</time></trkpt>
<trkpt lat="5332051.50" lon="-1.0"><ele></ele><time>2014-4-10T14:26:23Z</time></trkpt>
<trkpt lat="5332047.00" lon="-1.0"><ele></ele><time>2014-4-10T14:26:26Z</time></trkpt>
<trkpt lat="5332043.50" lon="-1.0"><ele></ele><time>2014-4-10T14:26:29Z</time></trkpt>
<trkpt lat="5332041.50" lon="-1.0"><ele></ele><time>2014-4-10T14:26:32Z</time></trkpt>
<trkpt lat="5332038.00" lon="-1.0"><ele></ele><time>2014-4-10T14:26:35Z</time></trkpt>
<trkpt lat="5332034.50" lon="-1.0"><ele></ele><time>2014-4-10T14:26:38Z</time></trkpt>
<trkpt lat="5332030.00" lon="-1.0"><ele></ele><time>2014-4-10T14:26:41Z</time></trkpt>
<trkpt lat="5332025.50" lon="-1.0"><ele></ele><time>2014-4-10T14:26:44Z</time></trkpt>
<trkpt lat="5332023.50" lon="-1.0"><ele></ele><time>2014-4-10T14:26:47Z</time></trkpt>
<trkpt lat="5332020.00" lon="-1.0"><ele></ele><time>2014-4-10T14:26:50Z</time></trkpt>
<trkpt lat="5332016.00" lon="-1.0"><ele></ele><time>2014-4-10T14:26:53Z</time></trkpt>
<trkpt lat="5332014.00" lon="-1.0"><ele></ele><time>2014-4-10T14:26:56Z</time></trkpt>
<trkpt lat="5332010.50" lon="-1.0"><ele></ele><time>2014-4-10T14:26:59Z</time></trkpt>
<trkpt lat="5332008.50" lon="-1.0"><ele></ele><time>2014-4-10T14:27:2Z</time></trkpt>
<trkpt lat="5332006.00" lon="-1.0"><ele></ele><time>2014-4-10T14:27:5Z</time></trkpt>
<trkpt lat="5332002.50" lon="-1.0"><ele></ele><time>2014-4-10T14:27:8Z</time></trkpt>
<trkpt lat="5332000.00" lon="-1.0"><ele></ele><time>2014-4-10T14:27:11Z</time></trkpt>
<trkpt lat="5331999.00" lon="-1.0"><ele></ele><time>2014-4-10T14:27:14Z</time></trkpt>
<trkpt lat="5331997.50" lon="-1.0"><ele></ele><time>2014-4-10T14:27:17Z</time></trkpt>
<trkpt lat="5331997.00" lon="-1.0"><ele></ele><time>2014-4-10T14:27:20Z</time></trkpt>
<trkpt lat="5331996.00" lon="-1.0"><ele></ele><time>2014-4-10T14:27:23Z</time></trkpt>
<trkpt lat="5331996.00" lon="-1.0"><ele></ele><time>2014-4-10T14:27:26Z</time></trkpt>
<trkpt lat="5331994.50" lon="-1.0"><ele></ele><time>2014-4-10T14:27:29Z</time></trkpt>
<trkpt lat="5331993.50" lon="-1.0"><ele></ele><time>2014-4-10T14:27:32Z</time></trkpt>
<trkpt lat="5331991.50" lon="-1.0"><ele></ele><time>2014-4-10T14:27:35Z</time></trkpt>
<trkpt lat="5331988.50" lon="-1.0"><ele></ele><time>2014-4-10T14:27:38Z</time></trkpt>
<trkpt lat="5331986.50" lon="-1.0"><ele></ele><time>2014-4-10T14:27:41Z</time></trkpt>
<trkpt lat="5331985.00" lon="-1.0"><ele></ele><time>2014-4-10T14:27:44Z</time></trkpt>
<trkpt lat="5331982.50" lon="-1.0"><ele></ele><time>2014-4-10T14:27:47Z</time></trkpt>
<trkpt lat="5331981.00" lon="-1.0"><ele></ele><time>2014-4-10T14:27:50Z</time></trkpt>
<trkpt lat="5331981.00" lon="-1.0"><ele></ele><time>2014-4-10T14:27:53Z</time></trkpt>
<trkpt lat="5331981.00" lon="-1.0"><ele></ele><time>2014-4-10T14:27:56Z</time></trkpt>
<trkpt lat="5331982.00" lon="-1.0"><ele></ele><time>2014-4-10T14:27:59Z</time></trkpt>
<trkpt lat="5331984.00" lon="-1.0"><ele></ele><time>2014-4-10T14:28:2Z</time></trkpt>
<trkpt lat="5331985.50" lon="-1.0"><ele></ele><time>2014-4-10T14:28:5Z</time></trkpt>
<trkpt lat="5331982.50" lon="-1.0"><ele></ele><time>2014-4-10T14:28:8Z</time></trkpt>
<trkpt lat="5331981.50" lon="-1.0"><ele></ele><time>2014-4-10T14:28:11Z</time></trkpt>
<trkpt lat="5331980.00" lon="-1.0"><ele></ele><time>2014-4-10T14:28:14Z</time></trkpt>
<trkpt lat="5331979.00" lon="-1.0"><ele></ele><time>2014-4-10T14:28:17Z</time></trkpt>
<trkpt lat="5331978.50" lon="-1.0"><ele></ele><time>2014-4-10T14:28:20Z</time></trkpt>
<trkpt lat="5331975.50" lon="-1.0"><ele></ele><time>2014-4-10T14:28:23Z</time></trkpt>
<trkpt lat="5331973.50" lon="-1.0"><ele></ele><time>2014-4-10T14:28:26Z</time></trkpt>
<trkpt lat="5331970.00" lon="-1.0"><ele></ele><time>2014-4-10T14:28:29Z</time></trkpt>
<trkpt lat="5331968.00" lon="-1.0"><ele></ele><time>2014-4-10T14:28:32Z</time></trkpt>
<trkpt lat="5331965.00" lon="-1.0"><ele></ele><time>2014-4-10T14:28:35Z</time></trkpt>
<trkpt lat="5331960.00" lon="-1.0"><ele></ele><time>2014-4-10T14:28:38Z</time></trkpt>
<trkpt lat="5331956.00" lon="-1.0"><ele></ele><time>2014-4-10T14:28:41Z</time></trkpt>
<trkpt lat="5331951.50" lon="-1.0"><ele></ele><time>2014-4-10T14:28:44Z</time></trkpt>
<trkpt lat="5331947.00" lon="-1.0"><ele></ele><time>2014-4-10T14:28:47Z</time></trkpt>
<trkpt lat="5331942.50" lon="-1.0"><ele></ele><time>2014-4-10T14:28:50Z</time></trkpt>
<trkpt lat="5331938.00" lon="-1.0"><ele></ele><time>2014-4-10T14:28:53Z</time></trkpt>
<trkpt lat="5331933.50" lon="-1.0"><ele></ele><time>2014-4-10T14:28:56Z</time></trkpt>
<trkpt lat="5331930.50" lon="-1.0"><ele></ele><time>2014-4-10T14:28:59Z</time></trkpt>
<trkpt lat="5331927.50" lon="-1.0"><ele></ele><time>2014-4-10T14:29:2Z</time></trkpt>
<trkpt lat="5331923.00" lon="-1.0"><ele></ele><time>2014-4-10T14:29:5Z</time></trkpt>
<trkpt lat="5331918.50" lon="-1.0"><ele></ele><time>2014-4-10T14:29:8Z</time></trkpt>
<trkpt lat="5331914.00" lon="-1.0"><ele></ele><time>2014-4-10T14:29:11Z</time></trkpt>
<trkpt lat="5331910.00" lon="-1.0"><ele></ele><time>2014-4-10T14:29:14Z</time></trkpt>
<trkpt lat="5331907.50" lon="-1.0"><ele></ele><time>2014-4-10T14:29:17Z</time></trkpt>
<trkpt lat="5331906.50" lon="-1.0"><ele></ele><time>2014-4-10T14:29:20Z</time></trkpt>
<trkpt lat="5331904.00" lon="-1.0"><ele></ele><time>2014-4-10T14:29:23Z</time></trkpt>
<trkpt lat="5331900.50" lon="-1.0"><ele></ele><time>2014-4-10T14:29:26Z</time></trkpt>
<trkpt lat="5331898.00" lon="-1.0"><ele></ele><time>2014-4-10T14:29:29Z</time></trkpt>
<trkpt lat="5331893.50" lon="-1.0"><ele></ele><time>2014-4-10T14:29:32Z</time></trkpt>
<trkpt lat="5331891.50" lon="-1.0"><ele></ele><time>2014-4-10T14:29:35Z</time></trkpt>
<trkpt lat="5331886.00" lon="-1.0"><ele></ele><time>2014-4-10T14:29:38Z</time></trkpt>
<trkpt lat="5331883.00" lon="-1.0"><ele></ele><time>2014-4-10T14:29:41Z</time></trkpt>
<trkpt lat="5331878.50" lon="-1.0"><ele></ele><time>2014-4-10T14:29:44Z</time></trkpt>
<trkpt lat="5331873.00" lon="-1.0"><ele></ele><time>2014-4-10T14:29:47Z</time></trkpt>
<trkpt lat="5331868.50" lon="-1.0"><ele></ele><time>2014-4-10T14:29:50Z</time></trkpt>
<trkpt lat="5331864.00" lon="-1.0"><ele></ele><time>2014-4-10T14:29:53Z</time></trkpt>
<trkpt lat="5331859.50" lon="-1.0"><ele></ele><time>2014-4-10T14:29:56Z</time></trkpt>
<trkpt lat="5331859.50" lon="-1.0"><ele></ele><time>2014-4-10T14:29:59Z</time></trkpt>
<trkpt lat="5331858.50" lon="-1.0"><ele></ele><time>2014-4-10T14:30:2Z</time></trkpt>
<trkpt lat="5331859.50" lon="-1.0"><ele></ele><time>2014-4-10T14:30:5Z</time></trkpt>
<trkpt lat="5331860.50" lon="-1.0"><ele></ele><time>2014-4-10T14:30:8Z</time></trkpt>
<trkpt lat="5331860.50" lon="373.7"><ele></ele><time>2014-4-10T14:30:11Z</time></trkpt>
<trkpt lat="5331860.50" lon="-1.0"><ele></ele><time>2014-4-10T14:30:14Z</time></trkpt>
<trkpt lat="5331862.00" lon="-1.0"><ele></ele><time>2014-4-10T14:30:17Z</time></trkpt>
<trkpt lat="5331862.00" lon="-1.0"><ele></ele><time>2014-4-10T14:30:20Z</time></trkpt>
<trkpt lat="5331862.00" lon="-1.0"><ele></ele><time>2014-4-10T14:30:23Z</time></trkpt>
<trkpt lat="5331860.50" lon="-1.0"><ele></ele><time>2014-4-10T14:30:26Z</time></trkpt>
<trkpt lat="5331862.00" lon="-1.0"><ele></ele><time>2014-4-10T14:30:29Z</time></trkpt>
<trkpt lat="5331864.00" lon="-1.0"><ele></ele><time>2014-4-10T14:30:32Z</time></trkpt>
<trkpt lat="5331865.00" lon="-1.0"><ele></ele><time>2014-4-10T14:30:35Z</time></trkpt>
<trkpt lat="5331864.00" lon="-1.0"><ele></ele><time>2014-4-10T14:30:38Z</time></trkpt>
<trkpt lat="5331861.50" lon="-1.0"><ele></ele><time>2014-4-10T14:30:41Z</time></trkpt>
<trkpt lat="5331862.50" lon="-1.0"><ele></ele><time>2014-4-10T14:30:44Z</time></trkpt>
<trkpt lat="5331863.50" lon="-1.0"><ele></ele><time>2014-4-10T14:30:47Z</time></trkpt>
<trkpt lat="5331863.50" lon="-1.0"><ele></ele><time>2014-4-10T14:30:50Z</time></trkpt>
<trkpt lat="5331863.50" lon="-1.0"><ele></ele><time>2014-4-10T14:30:53Z</time></trkpt>
<trkpt lat="5331864.00" lon="-1.0"><ele></ele><time>2014-4-10T14:30:56Z</time></trkpt>
<trkpt lat="5331865.50" lon="-1.0"><ele></ele><time>2014-4-10T14:30:59Z</time></trkpt>
<trkpt lat="5331867.00" lon="-1.0"><ele></ele><time>2014-4-10T14:31:2Z</time></trkpt>
<trkpt lat="5331870.50" lon="-1.0"><ele></ele><time>2014-4-10T14:31:5Z</time></trkpt>
<trkpt lat="5331872.50" lon="-1.0"><ele></ele><time>2014-4-10T14:31:8Z</time></trkpt>
<trkpt lat="5331875.00" lon="-1.0"><ele></ele><time>2014-4-10T14:31:11Z</time></trkpt>
<trkpt lat="5331878.50" lon="-1.0"><ele></ele><time>2014-4-10T14:31:14Z</time></trkpt>
<trkpt lat="5331879.50" lon="-1.0"><ele></ele><time>2014-4-10T14:31:17Z</time></trkpt>
<trkpt lat="5331880.50" lon="-1.0"><ele></ele><time>2014-4-10T14:31:20Z</time></trkpt>
<trkpt lat="5331881.50" lon="-1.0"><ele></ele><time>2014-4-10T14:31:23Z</time></trkpt>
<trkpt lat="5331882.50" lon="-1.0"><ele></ele><time>2014-4-10T14:31:26Z</time></trkpt>
<trkpt lat="5331884.00" lon="-1.0"><ele></ele><time>2014-4-10T14:31:29Z</time></trkpt>
<trkpt lat="5331885.50" lon="-1.0"><ele></ele><time>2014-4-10T14:31:32Z</time></trkpt>
<trkpt lat="5331887.50" lon="-1.0"><ele></ele><time>2014-4-10T14:31:35Z</time></trkpt>
<trkpt lat="5331890.50" lon="-1.0"><ele></ele><time>2014-4-10T14:31:38Z</time></trkpt>
<trkpt lat="5331890.50" lon="-1.0"><ele></ele><time>2014-4-10T14:31:41Z</time></trkpt>
<trkpt lat="5331889.50" lon="-1.0"><ele></ele><time>2014-4-10T14:31:44Z</time></trkpt>
<trkpt lat="5331885.00" lon="-1.0"><ele></ele><time>2014-4-10T14:31:47Z</time></trkpt>
<trkpt lat="5331880.00" lon="-1.0"><ele></ele><time>2014-4-10T14:31:50Z</time></trkpt>
<trkpt lat="5331875.50" lon="-1.0"><ele></ele><time>2014-4-10T14:31:53Z</time></trkpt>
<trkpt lat="5331872.00" lon="-1.0"><ele></ele><time>2014-4-10T14:31:56Z</time></trkpt>
<trkpt lat="5331868.50" lon="-1.0"><ele></ele><time>2014-4-10T14:31:59Z</time></trkpt>
<trkpt lat="5331865.00" lon="-1.0"><ele></ele><time>2014-4-10T14:32:2Z</time></trkpt>
<trkpt lat="5331861.00" lon="-1.0"><ele></ele><time>2014-4-10T14:32:5Z</time></trkpt>
<trkpt lat="5331857.00" lon="-1.0"><ele></ele><time>2014-4-10T14:32:8Z</time></trkpt>
<trkpt lat="5331851.50" lon="-1.0"><ele></ele><time>2014-4-10T14:32:11Z</time></trkpt>
<trkpt lat="5331846.00" lon="-1.0"><ele></ele><time>2014-4-10T14:32:14Z</time></trkpt>
<trkpt lat="5331841.00" lon="-1.0"><ele></ele><time>2014-4-10T14:32:17Z</time></trkpt>
<trkpt lat="5331833.00" lon="-1.0"><ele></ele><time>2014-4-10T14:32:20Z</time></trkpt>
<trkpt lat="5331831.00" lon="-1.0"><ele></ele><time>2014-4-10T14:32:23Z</time></trkpt>
<trkpt lat="5331825.50" lon="-1.0"><ele></ele><time>2014-4-10T14:32:26Z</time></trkpt>
<trkpt lat="5331818.00" lon="-1.0"><ele></ele><time>2014-4-10T14:32:29Z</time></trkpt>
<trkpt lat="5331813.00" lon="-1.0"><ele></ele><time>2014-4-10T14:32:32Z</time></trkpt>
<trkpt lat="5331805.00" lon="-1.0"><ele></ele><time>2014-4-10T14:32:35Z</time></trkpt>
<trkpt lat="5331799.00" lon="-1.0"><ele></ele><time>2014-4-10T14:32:38Z</time></trkpt>
<trkpt lat="5331796.50" lon="-1.0"><ele></ele><time>2014-4-10T14:32:41Z</time></trkpt>
<trkpt lat="5331790.00" lon="-1.0"><ele></ele><time>2014-4-10T14:32:44Z</time></trkpt>
<trkpt lat="5331785.50" lon="-1.0"><ele></ele><time>2014-4-10T14:32:47Z</time></trkpt>
<trkpt lat="5331776.00" lon="-1.0"><ele></ele><time>2014-4-10T14:32:50Z</time></trkpt>
<trkpt lat="5331767.50" lon="-1.0"><ele></ele><time>2014-4-10T14:32:53Z</time></trkpt>
<trkpt lat="5331760.50" lon="-1.0"><ele></ele><time>2014-4-10T14:32:56Z</time></trkpt>
<trkpt lat="5331755.00" lon="-1.0"><ele></ele><time>2014-4-10T14:32:59Z</time></trkpt>
<trkpt lat="5331748.50" lon="-1.0"><ele></ele><time>2014-4-10T14:33:2Z</time></trkpt>
<trkpt lat="5331742.50" lon="-1.0"><ele></ele><time>2014-4-10T14:33:5Z</time></trkpt>
<trkpt lat="5331735.00" lon="-1.0"><ele></ele><time>2014-4-10T14:33:8Z</time></trkpt>
<trkpt lat="5331728.00" lon="-1.0"><ele></ele><time>2014-4-10T14:33:11Z</time></trkpt>
<trkpt lat="5331722.00" lon="-1.0"><ele></ele><time>2014-4-10T14:33:14Z</time></trkpt>
<trkpt lat="5331718.00" lon="-1.0"><ele></ele><time>2014-4-10T14:33:17Z</time></trkpt>
<trkpt lat="5331714.50" lon="-1.0"><ele></ele><time>2014-4-10T14:33:20Z</time></trkpt>
<trkpt lat="5331708.50" lon="-1.0"><ele></ele><time>2014-4-10T14:33:23Z</time></trkpt>
<trkpt lat="5331705.00" lon="-1.0"><ele></ele><time>2014-4-10T14:33:26Z</time></trkpt>
<trkpt lat="5331698.50" lon="-1.0"><ele></ele><time>2014-4-10T14:33:29Z</time></trkpt>
<trkpt lat="5331690.50" lon="-1.0"><ele></ele><time>2014-4-10T14:33:32Z</time></trkpt>
<trkpt lat="5331684.00" lon="-1.0"><ele></ele><time>2014-4-10T14:33:35Z</time></trkpt>
<trkpt lat="5331680.00" lon="-1.0"><ele></ele><time>2014-4-10T14:33:38Z</time></trkpt>
<trkpt lat="5331672.50" lon="-1.0"><ele></ele><time>2014-4-10T14:33:41Z</time></trkpt>
<trkpt lat="5331665.50" lon="-1.0"><ele></ele><time>2014-4-10T14:33:44Z</time></trkpt>
<trkpt lat="5331656.50" lon="-1.0"><ele></ele><time>2014-4-10T14:33:47Z</time></trkpt>
<trkpt lat="5331650.50" lon="-1.0"><ele></ele><time>2014-4-10T14:33:50Z</time></trkpt>
<trkpt lat="5331643.00" lon="-1.0"><ele></ele><time>2014-4-10T14:33:53Z</time></trkpt>
<trkpt lat="5331639.50" lon="-1.0"><ele></ele><time>2014-4-10T14:33:56Z</time></trkpt>
<trkpt lat="5331631.50" lon="-1.0"><ele></ele><time>2014-4-10T14:33:59Z</time></trkpt>
<trkpt lat="5331624.00" lon="-1.0"><ele></ele><time>2014-4-10T14:34:2Z</time></trkpt>
<trkpt lat="5331616.00" lon="-1.0"><ele></ele><time>2014-4-10T14:34:5Z</time></trkpt>
<trkpt lat="5331610.50" lon="-1.0"><ele></ele><time>2014-4-10T14:34:8Z</time></trkpt>
<trkpt lat="5331606.00" lon="-1.0"><ele></ele><time>2014-4-10T14:34:11Z</time></trkpt>
<trkpt lat="5331601.50" lon="-1.0"><ele></ele><time>2014-4-10T14:34:14Z</time></trkpt>
<trkpt lat="5331596.00" lon="-1.0"><ele></ele><time>2014-4-10T14:34:17Z</time></trkpt>
<trkpt lat="5331590.50" lon="-1.0"><ele></ele><time>2014-4-10T14:34:20Z</time></trkpt>
<trkpt lat="5331583.50" lon="-1.0"><ele></ele><time>2014-4-10T14:34:23Z</time></trkpt>
<trkpt lat="5331578.50" lon="-1.0"><ele></ele><time>2014-4-10T14:34:26Z</time></trkpt>
<trkpt lat="5331576.00" lon="-1.0"><ele></ele><time>2014-4-10T14:34:29Z</time></trkpt>
<trkpt lat="5331575.00" lon="-1.0"><ele></ele><time>2014-4-10T14:34:32Z</time></trkpt>
<trkpt lat="5331574.50" lon="-1.0"><ele></ele><time>2014-4-10T14:34:35Z</time></trkpt>
<trkpt lat="5331574.50" lon="-1.0"><ele></ele><time>2014-4-10T14:34:38Z</time></trkpt>
<trkpt lat="5331574.00" lon="-1.0"><ele></ele><time>2014-4-10T14:34:41Z</time></trkpt>
<trkpt lat="5331574.00" lon="-1.0"><ele></ele><time>2014-4-10T14:34:44Z</time></trkpt>
<trkpt lat="5331575.00" lon="-1.0"><ele></ele><time>2014-4-10T14:34:47Z</time></trkpt>
<trkpt lat="5331575.50" lon="-1.0"><ele></ele><time>2014-4-10T14:34:50Z</time></trkpt>
<trkpt lat="5331577.00" lon="-1.0"><ele></ele><time>2014-4-10T14:34:53Z</time></trkpt>
<trkpt lat="5331579.00" lon="-1.0"><ele></ele><time>2014-4-10T14:34:56Z</time></trkpt>
<trkpt lat="5331579.50" lon="-1.0"><ele></ele><time>2014-4-10T14:34:59Z</time></trkpt>
<trkpt lat="5331581.50" lon="-1.0"><ele></ele><time>2014-4-10T14:35:2Z</time></trkpt>
<trkpt lat="5331584.50" lon="-1.0"><ele></ele><time>2014-4-10T14:35:5Z</time></trkpt>
<trkpt lat="5331587.00" lon="-1.0"><ele></ele><time>2014-4-10T14:35:8Z</time></trkpt>
<trkpt lat="5331589.50" lon="-1.0"><ele></ele><time>2014-4-10T14:35:11Z</time></trkpt>
<trkpt lat="5331592.00" lon="-1.0"><ele></ele><time>2014-4-10T14:35:14Z</time></trkpt>
<trkpt lat="5331593.50" lon="-1.0"><ele></ele><time>2014-4-10T14:35:17Z</time></trkpt>
<trkpt lat="5331595.50" lon="-1.0"><ele></ele><time>2014-4-10T14:35:20Z</time></trkpt>
<trkpt lat="5331598.50" lon="-1.0"><ele></ele><time>2014-4-10T14:35:23Z</time></trkpt>
<trkpt lat="5331602.00" lon="-1.0"><ele></ele><time>2014-4-10T14:35:26Z</time></trkpt>
<trkpt lat="5331604.00" lon="-1.0"><ele></ele><time>2014-4-10T14:35:29Z</time></trkpt>
<trkpt lat="5331606.00" lon="-1.0"><ele></ele><time>2014-4-10T14:35:32Z</time></trkpt>
<trkpt lat="5331609.00" lon="-1.0"><ele></ele><time>2014-4-10T14:35:35Z</time></trkpt>
<trkpt lat="5331611.00" lon="-1.0"><ele></ele><time>2014-4-10T14:35:38Z</time></trkpt>
<trkpt lat="5331614.50" lon="-1.0"><ele></ele><time>2014-4-10T14:35:41Z</time></trkpt>
<trkpt lat="5331614.50" lon="-1.0"><ele></ele><time>2014-4-10T14:35:44Z</time></trkpt>
<trkpt lat="5331615.50" lon="-1.0"><ele></ele><time>2014-4-10T14:35:47Z</time></trkpt>
<trkpt lat="5331616.50" lon="-1.0"><ele></ele><time>2014-4-10T14:35:50Z</time></trkpt>
<trkpt lat="5331618.00" lon="-1.0"><ele></ele><time>2014-4-10T14:35:53Z</time></trkpt>
<trkpt lat="5331616.50" lon="-1.0"><ele></ele><time>2014-4-10T14:35:56Z</time></trkpt>
<trkpt lat="5331616.50" lon="-1.0"><ele></ele><time>2014-4-10T14:35:59Z</time></trkpt>
<trkpt lat="5331616.50" lon="-1.0"><ele></ele><time>2014-4-10T14:36:2Z</time></trkpt>
<trkpt lat="5331616.50" lon="-1.0"><ele></ele><time>2014-4-10T14:36:5Z</time></trkpt>
<trkpt lat="5331615.50" lon="298.8"><ele></ele><time>2014-4-10T14:36:8Z</time></trkpt>
<trkpt lat="5331615.50" lon="-1.0"><ele></ele><time>2014-4-10T14:36:11Z</time></trkpt>
<trkpt lat="5331615.50" lon="-1.0"><ele></ele><time>2014-4-10T14:36:14Z</time></trkpt>
<trkpt lat="5331615.00" lon="-1.0"><ele></ele><time>2014-4-10T14:36:17Z</time></trkpt>
<trkpt lat="5331614.50" lon="300.8"><ele></ele><time>2014-4-10T14:36:20Z</time></trkpt>
<trkpt lat="5331613.00" lon="301.8"><ele></ele><time>2014-4-10T14:36:23Z</time></trkpt>
<trkpt lat="5331614.50" lon="299.8"><ele></ele><time>2014-4-10T14:36:26Z</time></trkpt>
<trkpt lat="5331616.50" lon="297.7"><ele></ele><time>2014-4-10T14:36:29Z</time></trkpt>
<trkpt lat="5331618.00" lon="295.7"><ele></ele><time>2014-4-10T14:36:32Z</time></trkpt>
<trkpt lat="5331616.50" lon="294.7"><ele></ele><time>2014-4-10T14:36:35Z</time></trkpt>
<trkpt lat="5331613.00" lon="294.7"><ele></ele><time>2014-4-10T14:36:38Z</time></trkpt>
<trkpt lat="5331613.50" lon="294.7"><ele></ele><time>2014-4-10T14:36:41Z</time></trkpt>
<trkpt lat="5331615.00" lon="294.7"><ele></ele><time>2014-4-10T14:36:44Z</time></trkpt>
<trkpt lat="5331619.00" lon="294.7"><ele></ele><time>2014-4-10T14:36:47Z</time></trkpt>
<trkpt lat="5331624.00" lon="295.7"><ele></ele><time>2014-4-10T14:36:50Z</time></trkpt>
<trkpt lat="5331630.50" lon="294.7"><ele></ele><time>2014-4-10T14:36:53Z</time></trkpt>
<trkpt lat="5331644.50" lon="294.7"><ele></ele><time>2014-4-10T14:36:56Z</time></trkpt>
<trkpt lat="5331655.00" lon="295.7"><ele></ele><time>2014-4-10T14:36:59Z</time></trkpt>
<trkpt lat="5331667.00" lon="295.7"><ele></ele><time>2014-4-10T14:37:2Z</time></trkpt>
<trkpt lat="5331680.00" lon="296.7"><ele></ele><time>2014-4-10T14:37:5Z</time></trkpt>
<trkpt lat="5331686.50" lon="295.7"><ele></ele><time>2014-4-10T14:37:8Z</time></trkpt>
<trkpt lat="5331688.50" lon="294.7"><ele></ele><time>2014-4-10T14:37:11Z</time></trkpt>
<trkpt lat="5331692.00" lon="294.7"><ele></ele><time>2014-4-10T14:37:14Z</time></trkpt>
<trkpt lat="5331703.50" lon="294.7"><ele></ele><time>2014-4-10T14:37:17Z</time></trkpt>
<trkpt lat="5331717.00" lon="293.7"><ele></ele><time>2014-4-10T14:37:20Z</time></trkpt>
<trkpt lat="5331727.50" lon="293.7"><ele></ele><time>2014-4-10T14:37:23Z</time></trkpt>
<trkpt lat="5331739.50" lon="293.7"><ele></ele><time>2014-4-10T14:37:26Z</time></trkpt>
<trkpt lat="5331753.50" lon="293.7"><ele></ele><time>2014-4-10T14:37:29Z</time></trkpt>
<trkpt lat="5331768.00" lon="293.7"><ele></ele><time>2014-4-10T14:37:32Z</time></trkpt>
<trkpt lat="5331782.00" lon="293.7"><ele></ele><time>2014-4-10T14:37:35Z</time></trkpt>
<trkpt lat="5331787.50" lon="294.7"><ele></ele><time>2014-4-10T14:37:38Z</time></trkpt>
<trkpt lat="5331799.50" lon="294.7"><ele></ele><time>2014-4-10T14:37:41Z</time></trkpt>
<trkpt lat="5331815.50" lon="295.7"><ele></ele><time>2014-4-10T14:37:44Z</time></trkpt>
<trkpt lat="5331831.50" lon="296.7"><ele></ele><time>2014-4-10T14:37:47Z</time></trkpt>
<trkpt lat="5331844.50" lon="296.7"><ele></ele><time>2014-4-10T14:37:50Z</time></trkpt>
<trkpt lat="5331859.00" lon="296.7"><ele></ele><time>2014-4-10T14:37:53Z</time></trkpt>
<trkpt lat="5331873.00" lon="297.7"><ele></ele><time>2014-4-10T14:37:56Z</time></trkpt>
<trkpt lat="5331890.00" lon="296.7"><ele></ele><time>2014-4-10T14:37:59Z</time></trkpt>
<trkpt lat="5331906.50" lon="295.7"><ele></ele><time>2014-4-10T14:38:2Z</time></trkpt>
<trkpt lat="5331922.00" lon="295.7"><ele></ele><time>2014-4-10T14:38:5Z</time></trkpt>
<trkpt lat="5331935.00" lon="295.7"><ele></ele><time>2014-4-10T14:38:8Z</time></trkpt>
<trkpt lat="5331946.00" lon="295.7"><ele></ele><time>2014-4-10T14:38:11Z</time></trkpt>
<trkpt lat="5331961.00" lon="296.7"><ele></ele><time>2014-4-10T14:38:14Z</time></trkpt>
<trkpt lat="5331974.50" lon="295.7"><ele></ele><time>2014-4-10T14:38:17Z</time></trkpt>
<trkpt lat="5331987.50" lon="295.7"><ele></ele><time>2014-4-10T14:38:20Z</time></trkpt>
<trkpt lat="5331999.50" lon="295.7"><ele></ele><time>2014-4-10T14:38:23Z</time></trkpt>
<trkpt lat="5332012.00" lon="294.7"><ele></ele><time>2014-4-10T14:38:26Z</time></trkpt>
<trkpt lat="5332024.50" lon="295.7"><ele></ele><time>2014-4-10T14:38:29Z</time></trkpt>
<trkpt lat="5332037.50" lon="296.7"><ele></ele><time>2014-4-10T14:38:32Z</time></trkpt>
<trkpt lat="5332050.50" lon="297.7"><ele></ele><time>2014-4-10T14:38:35Z</time></trkpt>
<trkpt lat="5332064.00" lon="298.7"><ele></ele><time>2014-4-10T14:38:38Z</time></trkpt>
<trkpt lat="5332075.50" lon="299.7"><ele></ele><time>2014-4-10T14:38:41Z</time></trkpt>
<trkpt lat="5332088.00" lon="300.7"><ele></ele><time>2014-4-10T14:38:44Z</time></trkpt>
<trkpt lat="5332099.00" lon="300.7"><ele></ele><time>2014-4-10T14:38:47Z</time></trkpt>
<trkpt lat="5332108.00" lon="299.7"><ele></ele><time>2014-4-10T14:38:50Z</time></trkpt>
<trkpt lat="5332114.00" lon="299.7"><ele></ele><time>2014-4-10T14:38:53Z</time></trkpt>
<trkpt lat="5332119.50" lon="299.7"><ele></ele><time>2014-4-10T14:38:56Z</time></trkpt>
<trkpt lat="5332131.00" lon="300.7"><ele></ele><time>2014-4-10T14:38:59Z</time></trkpt>
<trkpt lat="5332144.00" lon="300.7"><ele></ele><time>2014-4-10T14:39:2Z</time></trkpt>
<trkpt lat="5332153.00" lon="299.7"><ele></ele><time>2014-4-10T14:39:5Z</time></trkpt>
<trkpt lat="5332165.50" lon="299.7"><ele></ele><time>2014-4-10T14:39:8Z</time></trkpt>
<trkpt lat="5332176.00" lon="298.7"><ele></ele><time>2014-4-10T14:39:11Z</time></trkpt>
<trkpt lat="5332186.00" lon="298.7"><ele></ele><time>2014-4-10T14:39:14Z</time></trkpt>
<trkpt lat="5332196.50" lon="297.7"><ele></ele><time>2014-4-10T14:39:17Z</time></trkpt>
<trkpt lat="5332208.00" lon="296.7"><ele></ele><time>2014-4-10T14:39:20Z</time></trkpt>
<trkpt lat="5332219.50" lon="296.7"><ele></ele><time>2014-4-10T14:39:23Z</time></trkpt>
<trkpt lat="5332231.00" lon="294.7"><ele></ele><time>2014-4-10T14:39:26Z</time></trkpt>
<trkpt lat="5332240.50" lon="293.7"><ele></ele><time>2014-4-10T14:39:29Z</time></trkpt>
<trkpt lat="5332249.00" lon="293.7"><ele></ele><time>2014-4-10T14:39:32Z</time></trkpt>
<trkpt lat="5332255.00" lon="293.7"><ele></ele><time>2014-4-10T14:39:35Z</time></trkpt>
<trkpt lat="5332266.50" lon="293.7"><ele></ele><time>2014-4-10T14:39:38Z</time></trkpt>
<trkpt lat="5332276.50" lon="292.7"><ele></ele><time>2014-4-10T14:39:41Z</time></trkpt>
<trkpt lat="5332288.00" lon="293.7"><ele></ele><time>2014-4-10T14:39:44Z</time></trkpt>
<trkpt lat="5332295.50" lon="293.7"><ele></ele><time>2014-4-10T14:39:47Z</time></trkpt>
<trkpt lat="5332301.00" lon="292.7"><ele></ele><time>2014-4-10T14:39:50Z</time></trkpt>
<trkpt lat="5332309.00" lon="290.7"><ele></ele><time>2014-4-10T14:39:53Z</time></trkpt>
<trkpt lat="5332317.50" lon="290.7"><ele></ele><time>2014-4-10T14:39:56Z</time></trkpt>
<trkpt lat="5332323.50" lon="290.7"><ele></ele><time>2014-4-10T14:39:59Z</time></trkpt>
<trkpt lat="5332334.00" lon="290.7"><ele></ele><time>2014-4-10T14:40:2Z</time></trkpt>
<trkpt lat="5332341.50" lon="291.7"><ele></ele><time>2014-4-10T14:40:5Z</time></trkpt>
<trkpt lat="5332352.00" lon="291.7"><ele></ele><time>2014-4-10T14:40:8Z</time></trkpt>
<trkpt lat="5332360.50" lon="290.7"><ele></ele><time>2014-4-10T14:40:11Z</time></trkpt>
<trkpt lat="5332370.00" lon="291.7"><ele></ele><time>2014-4-10T14:40:14Z</time></trkpt>
<trkpt lat="5332375.50" lon="292.7"><ele></ele><time>2014-4-10T14:40:17Z</time></trkpt>
<trkpt lat="5332384.00" lon="294.7"><ele></ele><time>2014-4-10T14:40:20Z</time></trkpt>
<trkpt lat="5332393.50" lon="294.7"><ele></ele><time>2014-4-10T14:40:23Z</time></trkpt>
<trkpt lat="5332405.00" lon="295.7"><ele></ele><time>2014-4-10T14:40:26Z</time></trkpt>
<trkpt lat="5332414.50" lon="295.7"><ele></ele><time>2014-4-10T14:40:29Z</time></trkpt>
<trkpt lat="5332422.00" lon="295.7"><ele></ele><time>2014-4-10T14:40:32Z</time></trkpt>
<trkpt lat="5332435.00" lon="295.6"><ele></ele><time>2014-4-10T14:40:35Z</time></trkpt>
<trkpt lat="5332444.50" lon="295.7"><ele></ele><time>2014-4-10T14:40:38Z</time></trkpt>
<trkpt lat="5332453.50" lon="296.7"><ele></ele><time>2014-4-10T14:40:41Z</time></trkpt>
<trkpt lat="5332463.50" lon="296.6"><ele></ele><time>2014-4-10T14:40:44Z</time></trkpt>
<trkpt lat="5332472.00" lon="296.6"><ele></ele><time>2014-4-10T14:40:47Z</time></trkpt>
<trkpt lat="5332481.50" lon="296.6"><ele></ele><time>2014-4-10T14:40:50Z</time></trkpt>
<trkpt lat="5332492.00" lon="296.6"><ele></ele><time>2014-4-10T14:40:53Z</time></trkpt>
<trkpt lat="5332501.50" lon="296.6"><ele></ele><time>2014-4-10T14:40:56Z</time></trkpt>
<trkpt lat="5332511.00" lon="296.6"><ele></ele><time>2014-4-10T14:40:59Z</time></trkpt>
<trkpt lat="5332519.50" lon="297.6"><ele></ele><time>2014-4-10T14:41:2Z</time></trkpt>
<trkpt lat="5332529.50" lon="297.6"><ele></ele><time>2014-4-10T14:41:5Z</time></trkpt>
<trkpt lat="5332534.50" lon="297.6"><ele></ele><time>2014-4-10T14:41:8Z</time></trkpt>
<trkpt lat="5332544.00" lon="298.6"><ele></ele><time>2014-4-10T14:41:11Z</time></trkpt>
<trkpt lat="5332552.50" lon="298.6"><ele></ele><time>2014-4-10T14:41:14Z</time></trkpt>
<trkpt lat="5332563.50" lon="298.6"><ele></ele><time>2014-4-10T14:41:17Z</time></trkpt>
<trkpt lat="5332573.00" lon="298.6"><ele></ele><time>2014-4-10T14:41:20Z</time></trkpt>
<trkpt lat="5332582.50" lon="298.6"><ele></ele><time>2014-4-10T14:41:23Z</time></trkpt>
<trkpt lat="5332589.00" lon="297.6"><ele></ele><time>2014-4-10T14:41:26Z</time></trkpt>
<trkpt lat="5332595.00" lon="297.6"><ele></ele><time>2014-4-10T14:41:29Z</time></trkpt>
<trkpt lat="5332602.50" lon="298.6"><ele></ele><time>2014-4-10T14:41:32Z</time></trkpt>
<trkpt lat="5332609.50" lon="299.6"><ele></ele><time>2014-4-10T14:41:35Z</time></trkpt>
<trkpt lat="5332615.50" lon="298.6"><ele></ele><time>2014-4-10T14:41:38Z</time></trkpt>
<trkpt lat="5332619.00" lon="298.6"><ele></ele><time>2014-4-10T14:41:41Z</time></trkpt>
<trkpt lat="5332625.00" lon="298.6"><ele></ele><time>2014-4-10T14:41:44Z</time></trkpt>
<trkpt lat="5332631.00" lon="298.6"><ele></ele><time>2014-4-10T14:41:47Z</time></trkpt>
<trkpt lat="5332637.00" lon="298.6"><ele></ele><time>2014-4-10T14:41:50Z</time></trkpt>
<trkpt lat="5332635.50" lon="300.6"><ele></ele><time>2014-4-10T14:41:53Z</time></trkpt>
<trkpt lat="5332631.50" lon="299.6"><ele></ele><time>2014-4-10T14:41:56Z</time></trkpt>
<trkpt lat="5332627.50" lon="299.6"><ele></ele><time>2014-4-10T14:41:59Z</time></trkpt>
<trkpt lat="5332626.00" lon="300.6"><ele></ele><time>2014-4-10T14:42:2Z</time></trkpt>
<trkpt lat="5332628.50" lon="302.6"><ele></ele><time>2014-4-10T14:42:5Z</time></trkpt>
<trkpt lat="5332634.50" lon="301.6"><ele></ele><time>2014-4-10T14:42:8Z</time></trkpt>
<trkpt lat="5332642.50" lon="301.6"><ele></ele><time>2014-4-10T14:42:11Z</time></trkpt>
<trkpt lat="5332648.50" lon="302.6"><ele></ele><time>2014-4-10T14:42:14Z</time></trkpt>
<trkpt lat="5332659.00" lon="303.6"><ele></ele><time>2014-4-10T14:42:17Z</time></trkpt>
<trkpt lat="5332669.50" lon="303.6"><ele></ele><time>2014-4-10T14:42:20Z</time></trkpt>
<trkpt lat="5332679.50" lon="304.6"><ele></ele><time>2014-4-10T14:42:23Z</time></trkpt>
<trkpt lat="5332686.50" lon="305.6"><ele></ele><time>2014-4-10T14:42:26Z</time></trkpt>
<trkpt lat="5332689.00" lon="306.6"><ele></ele><time>2014-4-10T14:42:29Z</time></trkpt>
<trkpt lat="5332689.50" lon="307.6"><ele></ele><time>2014-4-10T14:42:32Z</time></trkpt>
<trkpt lat="5332689.50" lon="308.6"><ele></ele><time>2014-4-10T14:42:35Z</time></trkpt>
<trkpt lat="5332688.50" lon="310.6"><ele></ele><time>2014-4-10T14:42:38Z</time></trkpt>
<trkpt lat="5332687.50" lon="312.6"><ele></ele><time>2014-4-10T14:42:41Z</time></trkpt>
<trkpt lat="5332690.00" lon="314.6"><ele></ele><time>2014-4-10T14:42:44Z</time></trkpt>
<trkpt lat="5332693.50" lon="314.6"><ele></ele><time>2014-4-10T14:42:47Z</time></trkpt>
<trkpt lat="5332689.00" lon="315.6"><ele></ele><time>2014-4-10T14:42:50Z</time></trkpt>
<trkpt lat="5332695.50" lon="315.6"><ele></ele><time>2014-4-10T14:42:53Z</time></trkpt>
<trkpt lat="5332700.50" lon="318.6"><ele></ele><time>2014-4-10T14:42:56Z</time></trkpt>
<trkpt lat="5332702.00" lon="318.6"><ele></ele><time>2014-4-10T14:42:59Z</time></trkpt>
<trkpt lat="5332703.00" lon="317.6"><ele></ele><time>2014-4-10T14:43:2Z</time></trkpt>
<trkpt lat="5332702.00" lon="314.6"><ele></ele><time>2014-4-10T14:43:5Z</time></trkpt>
<trkpt lat="5332703.00" lon="313.6"><ele></ele><time>2014-4-10T14:43:8Z</time></trkpt>
<trkpt lat="5332702.00" lon="315.6"><ele></ele><time>2014-4-10T14:43:11Z</time></trkpt>
<trkpt lat="5332697.50" lon="311.6"><ele></ele><time>2014-4-10T14:43:14Z</time></trkpt>
<trkpt lat="5332696.50" lon="-1.0"><ele></ele><time>2014-4-10T14:43:17Z</time></trkpt>
<trkpt lat="5332695.50" lon="312.6"><ele></ele><time>2014-4-10T14:43:20Z</time></trkpt>
<trkpt lat="5332695.50" lon="-1.0"><ele></ele><time>2014-4-10T14:43:23Z</time></trkpt>
<trkpt lat="5332697.00" lon="311.6"><ele></ele><time>2014-4-10T14:43:26Z</time></trkpt>
<trkpt lat="5332692.00" lon="313.6"><ele></ele><time>2014-4-10T14:43:29Z</time></trkpt>
<trkpt lat="5332692.50" lon="312.6"><ele></ele><time>2014-4-10T14:43:32Z</time></trkpt>
<trkpt lat="5332692.50" lon="312.6"><ele></ele><time>2014-4-10T14:43:35Z</time></trkpt>
</trkseg></trk></gpx>